createdAt,value
2022-11-02T00:01:09.666Z,36.13
2022-11-02T00:03:37.570Z,37.97
2022-11-02T00:06:05.564Z,38.57
2022-11-02T00:08:33.387Z,37.67
2022-11-02T00:11:01.231Z,37.20
2022-11-02T00:13:29.094Z,39.03
2022-11-02T00:15:58.518Z,38.53
2022-11-02T00:18:26.378Z,38.07
2022-11-02T00:20:54.217Z,39.30
2022-11-02T00:23:22.066Z,39.73
2022-11-02T00:25:52.958Z,38.03
2022-11-02T00:28:21.090Z,38.97
2022-11-02T00:30:49.052Z,38.60
2022-11-02T00:33:18.411Z,38.03
2022-11-02T00:35:46.814Z,38.33
2022-11-02T00:38:14.918Z,36.13
2022-11-02T00:40:42.806Z,35.70
2022-11-02T00:43:10.625Z,33.17
2022-11-02T00:45:38.745Z,37.23
2022-11-02T00:48:07.655Z,34.43
2022-11-02T00:50:37.047Z,34.27
2022-11-02T00:53:04.886Z,36.77
2022-11-02T00:55:32.710Z,34.57
2022-11-02T00:58:00.716Z,34.00
2022-11-02T01:00:28.711Z,33.80
2022-11-02T01:02:56.537Z,34.17
2022-11-02T01:05:24.390Z,33.83
2022-11-02T01:07:53.875Z,33.47
2022-11-02T01:10:21.993Z,34.00
2022-11-02T01:12:49.930Z,35.37
2022-11-02T01:15:17.935Z,34.17
2022-11-02T01:17:45.765Z,33.23
2022-11-02T01:20:14.274Z,31.33
2022-11-02T01:22:42.113Z,31.47
2022-11-02T01:25:11.489Z,31.43
2022-11-02T01:27:39.361Z,29.80
2022-11-02T01:30:08.255Z,32.47
2022-11-02T01:32:36.130Z,32.67
2022-11-02T01:35:05.604Z,33.40
2022-11-02T01:37:33.451Z,35.30
2022-11-02T01:40:01.478Z,29.97
2022-11-02T01:42:30.675Z,28.30
2022-11-02T01:44:58.503Z,28.63
2022-11-02T01:47:31.325Z,27.83
2022-11-02T01:50:04.371Z,27.30
2022-11-02T01:52:35.680Z,27.40
2022-11-02T01:55:08.137Z,28.10
2022-11-02T01:57:39.156Z,25.80
2022-11-02T02:00:09.955Z,26.97
2022-11-02T02:02:43.862Z,28.47
2022-11-02T02:05:14.723Z,28.23
2022-11-02T02:07:43.049Z,31.50
2022-11-02T02:10:11.265Z,27.43
2022-11-02T02:12:43.734Z,31.07
2022-11-02T02:15:13.122Z,31.93
2022-11-02T02:17:48.149Z,32.97
2022-11-02T02:20:27.355Z,30.13
2022-11-02T02:23:19.518Z,34.70
2022-11-02T02:26:05.469Z,30.97
2022-11-02T02:28:42.568Z,29.53
2022-11-02T02:31:15.819Z,30.93
2022-11-02T02:33:50.601Z,27.73
2022-11-02T02:36:22.754Z,29.13
2022-11-02T02:38:59.866Z,31.90
2022-11-02T02:41:39.266Z,35.10
2022-11-02T02:44:12.063Z,32.67
2022-11-02T02:46:46.629Z,35.00
2022-11-02T02:49:19.233Z,34.50
2022-11-02T02:51:48.409Z,32.17
2022-11-02T02:54:20.567Z,32.33
2022-11-02T02:56:53.806Z,32.07
2022-11-02T02:59:27.100Z,30.33
2022-11-02T03:01:57.140Z,31.40
2022-11-02T03:04:25.771Z,31.20
2022-11-02T03:06:58.140Z,30.60
2022-11-02T03:09:33.542Z,32.57
2022-11-02T03:12:14.166Z,31.17
2022-11-02T03:14:55.035Z,31.30
2022-11-02T03:17:31.710Z,31.73
2022-11-02T03:20:09.010Z,30.43
2022-11-02T03:22:48.362Z,31.00
2022-11-02T03:25:20.119Z,27.20
2022-11-02T03:27:54.325Z,25.43
2022-11-02T03:30:25.581Z,24.47
2022-11-02T03:33:02.288Z,27.37
2022-11-02T03:35:35.703Z,29.33
2022-11-02T03:38:07.583Z,29.43
2022-11-02T03:40:40.418Z,22.70
2022-11-02T03:43:08.673Z,22.17
2022-11-02T03:45:42.091Z,24.50
2022-11-02T03:48:13.834Z,23.23
2022-11-02T03:50:47.427Z,23.77
2022-11-02T03:53:22.260Z,21.43
2022-11-02T03:55:54.053Z,19.43
2022-11-02T03:58:21.913Z,20.87
2022-11-02T04:00:54.465Z,18.47
2022-11-02T04:03:25.084Z,17.57
2022-11-02T04:05:53.026Z,15.07
2022-11-02T04:08:29.330Z,17.50
2022-11-02T04:11:14.801Z,15.93
2022-11-02T04:14:00.188Z,16.77
2022-11-02T04:16:29.404Z,16.13
2022-11-02T04:19:14.873Z,16.57
2022-11-02T04:22:03.093Z,16.10
2022-11-02T04:24:48.491Z,17.17
2022-11-02T04:27:20.513Z,17.33
2022-11-02T04:29:48.669Z,17.30
2022-11-02T04:32:38.833Z,18.37
2022-11-02T04:35:07.046Z,17.80
2022-11-02T04:37:57.177Z,17.80
2022-11-02T04:40:25.157Z,16.93
2022-11-02T04:42:52.990Z,19.23
2022-11-02T04:45:20.838Z,17.00
2022-11-02T04:47:50.038Z,18.00
2022-11-02T04:50:18.055Z,18.33
2022-11-02T04:52:45.932Z,17.53
2022-11-02T04:55:13.787Z,19.90
2022-11-02T04:57:46.410Z,19.43
2022-11-02T05:00:15.634Z,17.73
2022-11-02T05:02:43.800Z,15.50
2022-11-02T05:05:13.117Z,15.53
2022-11-02T05:07:41.134Z,13.67
2022-11-02T05:10:10.285Z,14.50
2022-11-02T05:12:38.246Z,14.50
2022-11-02T05:15:07.102Z,15.13
2022-11-02T05:17:34.941Z,14.27
2022-11-02T05:20:03.946Z,15.53
2022-11-02T05:22:33.294Z,15.80
2022-11-02T05:25:01.131Z,16.30
2022-11-02T05:27:28.949Z,16.43
2022-11-02T05:29:56.755Z,17.57
2022-11-02T05:32:24.624Z,16.90
2022-11-02T05:34:52.508Z,17.60
2022-11-02T05:37:20.351Z,17.80
2022-11-02T05:39:50.619Z,19.53
2022-11-02T05:42:18.722Z,22.97
2022-11-02T05:44:46.573Z,26.47
2022-11-02T05:47:14.405Z,25.87
2022-11-02T05:49:42.422Z,24.17
2022-11-02T05:52:10.302Z,21.97
2022-11-02T05:54:38.136Z,20.73
2022-11-02T05:57:07.640Z,20.37
2022-11-02T05:59:35.474Z,21.70
2022-11-02T06:02:03.423Z,19.77
2022-11-02T06:04:31.430Z,19.93
2022-11-02T06:06:59.252Z,19.53
2022-11-02T06:09:27.661Z,20.27
2022-11-02T06:11:57.270Z,19.53
2022-11-02T06:14:26.658Z,19.60
2022-11-02T06:16:54.483Z,18.57
2022-11-02T06:19:22.377Z,17.37
2022-11-02T06:21:50.231Z,17.57
2022-11-02T06:24:18.116Z,17.50
2022-11-02T06:26:46.858Z,19.77
2022-11-02T06:29:15.036Z,17.37
2022-11-02T06:31:44.267Z,16.97
2022-11-02T06:34:12.149Z,16.53
2022-11-02T06:36:39.977Z,15.60
2022-11-02T06:39:07.842Z,15.77
2022-11-02T06:41:35.697Z,16.90
2022-11-02T06:44:03.584Z,16.97
2022-11-02T06:46:31.374Z,15.33
2022-11-02T06:49:00.598Z,15.03
2022-11-02T06:51:28.444Z,17.30
2022-11-02T06:53:56.451Z,16.87
2022-11-02T06:56:24.260Z,16.17
2022-11-02T06:58:52.183Z,16.37
2022-11-02T07:01:20.125Z,17.03
2022-11-02T07:03:48.026Z,17.23
2022-11-02T07:06:17.243Z,17.33
2022-11-02T07:08:45.150Z,16.27
2022-11-02T07:11:17.182Z,15.97
2022-11-02T07:13:45.313Z,18.03
2022-11-02T07:16:13.349Z,18.30
2022-11-02T07:18:41.751Z,17.05
2022-11-02T07:21:11.482Z,18.30
2022-11-02T07:27:31.262Z,20.13
2022-11-02T07:29:59.350Z,18.77
2022-11-02T07:32:27.259Z,19.80
2022-11-02T07:34:55.113Z,21.08
2022-11-02T07:37:22.930Z,20.25
2022-11-02T07:39:50.773Z,21.25
2022-11-02T07:42:18.696Z,20.90
2022-11-02T07:44:47.945Z,22.23
2022-11-02T07:47:15.814Z,20.58
2022-11-02T07:49:43.731Z,22.15
2022-11-02T07:52:11.548Z,22.17
2022-11-02T07:54:44.336Z,21.92
2022-11-02T07:57:12.561Z,24.60
2022-11-02T07:59:40.385Z,24.25
2022-11-02T08:02:13.648Z,22.73
2022-11-02T08:04:44.081Z,24.10
2022-11-02T08:07:13.027Z,23.52
2022-11-02T08:09:40.922Z,27.88
2022-11-02T08:12:08.855Z,24.60
2022-11-02T08:14:36.681Z,24.23
2022-11-02T08:17:04.595Z,23.88
2022-11-02T08:19:33.907Z,22.92
2022-11-02T08:22:01.753Z,24.27
2022-11-02T08:24:29.619Z,24.25
2022-11-02T08:26:57.446Z,23.40
2022-11-02T08:29:25.278Z,23.88
2022-11-02T08:31:53.155Z,22.70
2022-11-02T08:34:20.974Z,23.42
2022-11-02T08:36:50.180Z,23.67
2022-11-02T08:39:19.247Z,22.38
2022-11-02T08:41:47.220Z,22.40
2022-11-02T08:44:15.070Z,22.33
2022-11-02T08:46:42.986Z,23.83
2022-11-02T08:49:10.898Z,23.77
2022-11-02T08:51:38.761Z,23.85
2022-11-02T08:54:07.997Z,25.02
2022-11-02T08:56:35.904Z,26.40
2022-11-02T08:59:03.795Z,22.10
2022-11-02T09:01:31.684Z,22.58
2022-11-02T09:03:59.575Z,21.52
2022-11-02T09:06:27.430Z,22.17
2022-11-02T09:08:57.941Z,23.05
2022-11-02T09:11:28.299Z,22.58
2022-11-02T09:13:57.267Z,22.67
2022-11-02T09:16:25.254Z,23.23
2022-11-02T09:18:53.094Z,20.77
2022-11-02T09:21:20.917Z,24.13
2022-11-02T09:23:49.299Z,21.73
2022-11-02T09:26:17.180Z,21.35
2022-11-02T09:28:46.406Z,20.75
2022-11-02T09:31:14.261Z,21.30
2022-11-02T09:33:42.140Z,21.05
2022-11-02T09:36:10.722Z,20.90
2022-11-02T09:38:38.623Z,21.23
2022-11-02T09:41:15.418Z,20.83
2022-11-02T09:43:54.235Z,20.55
2022-11-02T09:46:26.942Z,21.42
2022-11-02T09:48:59.114Z,19.95
2022-11-02T09:51:30.379Z,21.80
2022-11-02T09:54:11.646Z,19.83
2022-11-02T09:56:45.654Z,19.75
2022-11-02T09:59:17.214Z,21.20
2022-11-02T10:01:59.933Z,21.35
2022-11-02T10:04:55.163Z,20.00
2022-11-02T10:07:39.489Z,19.75
2022-11-02T10:10:15.187Z,20.20
2022-11-02T10:12:52.459Z,19.63
2022-11-02T10:15:26.301Z,19.38
2022-11-02T10:17:58.915Z,18.17
2022-11-02T10:20:28.606Z,18.45
2022-11-02T10:23:03.749Z,18.15
2022-11-02T10:25:31.925Z,18.85
2022-11-02T10:28:04.794Z,18.60
2022-11-02T10:30:34.416Z,19.27
2022-11-02T10:33:02.599Z,19.67
2022-11-02T10:35:57.759Z,18.05
2022-11-02T10:38:39.291Z,19.48
2022-11-02T10:41:21.803Z,19.90
2022-11-02T10:44:10.029Z,18.98
2022-11-02T10:46:54.989Z,17.48
2022-11-02T10:49:46.727Z,19.45
2022-11-02T10:52:16.825Z,17.85
2022-11-02T10:54:44.663Z,17.45
2022-11-02T10:57:13.912Z,16.95
2022-11-02T10:59:42.123Z,16.02
2022-11-02T11:02:14.607Z,16.35
2022-11-02T11:04:43.906Z,16.30
2022-11-02T11:07:18.047Z,16.15
2022-11-02T11:09:51.726Z,15.93
2022-11-02T11:12:23.650Z,16.08
2022-11-02T11:20:37.341Z,13.18
2022-11-02T11:23:20.150Z,13.85
2022-11-02T11:26:02.261Z,14.18
2022-11-02T11:28:33.450Z,12.43
2022-11-02T11:31:08.903Z,11.88
2022-11-02T11:33:46.437Z,11.98
2022-11-02T11:38:59.409Z,11.57
2022-11-02T11:41:27.999Z,13.80
2022-11-02T11:43:56.280Z,8.40
2022-11-02T11:46:24.313Z,8.65
2022-11-02T11:48:56.354Z,7.00
2022-11-02T11:51:32.109Z,9.00
2022-11-02T11:54:20.426Z,10.90
2022-11-02T11:56:49.324Z,9.10
2022-11-02T11:59:29.614Z,8.45
2022-11-02T12:01:59.694Z,6.95
2022-11-02T12:04:30.940Z,6.93
2022-11-02T12:07:23.691Z,6.07
2022-11-02T12:10:02.785Z,5.30
2022-11-02T12:12:47.102Z,5.10
2022-11-02T12:15:25.194Z,5.63
2022-11-02T12:18:06.214Z,5.65
2022-11-02T12:20:55.844Z,5.80
2022-11-02T12:23:40.323Z,5.45
2022-11-02T12:26:22.281Z,5.50
2022-11-02T12:29:02.413Z,5.03
2022-11-02T12:31:36.764Z,5.53
2022-11-02T12:34:28.504Z,6.03
2022-11-02T12:37:35.351Z,5.28
2022-11-02T12:40:16.574Z,5.00
2022-11-02T12:42:54.972Z,5.35
2022-11-02T12:45:29.129Z,6.85
2022-11-02T12:48:00.093Z,5.32
2022-11-02T12:50:38.641Z,5.57
2022-11-02T12:53:23.375Z,5.55
2022-11-02T12:55:55.234Z,6.13
2022-11-02T12:58:27.323Z,5.57
2022-11-02T13:01:12.341Z,5.78
2022-11-02T13:03:48.929Z,5.05
2022-11-02T13:06:21.471Z,5.85
2022-11-02T13:08:55.223Z,5.13
2022-11-02T13:11:28.487Z,4.85
2022-11-02T13:13:59.186Z,5.60
2022-11-02T13:16:36.927Z,5.40
2022-11-02T13:19:06.592Z,5.82
2022-11-02T13:21:43.696Z,5.85
2022-11-02T13:24:19.643Z,5.88
2022-11-02T13:26:57.279Z,5.45
2022-11-02T13:29:37.186Z,5.18
2022-11-02T13:32:11.137Z,5.72
2022-11-02T13:34:42.718Z,5.20
2022-11-02T13:37:15.911Z,5.13
2022-11-02T13:39:51.564Z,5.07
2022-11-02T13:42:38.186Z,6.00
2022-11-02T13:45:38.708Z,6.20
2022-11-02T13:48:33.419Z,5.85
2022-11-02T13:51:06.540Z,6.00
2022-11-02T13:53:38.702Z,5.25
2022-11-02T13:56:10.897Z,5.50
2022-11-02T13:58:50.734Z,5.35
2022-11-02T14:01:20.849Z,5.60
2022-11-02T14:03:56.155Z,6.60
2022-11-02T14:06:28.553Z,5.88
2022-11-02T14:08:59.514Z,5.68
2022-11-02T14:11:50.083Z,5.55
2022-11-02T14:14:23.617Z,6.40
2022-11-02T14:17:13.634Z,6.60
2022-11-02T14:19:56.934Z,7.45
2022-11-02T14:22:24.799Z,7.35
2022-11-02T14:25:05.930Z,6.38
2022-11-02T14:27:35.530Z,6.55
2022-11-02T14:30:03.475Z,6.55
2022-11-02T14:32:52.115Z,6.90
2022-11-02T14:35:39.405Z,6.25
2022-11-02T14:38:39.506Z,5.88
2022-11-02T14:41:23.975Z,7.20
2022-11-02T14:44:15.869Z,7.32
2022-11-02T14:46:56.668Z,7.30
2022-11-02T14:49:28.863Z,7.05
2022-11-02T14:52:04.593Z,8.10
2022-11-02T14:54:35.635Z,7.72
2022-11-02T14:57:07.341Z,7.70
2022-11-02T14:59:39.702Z,7.05
2022-11-02T15:02:13.786Z,6.63
2022-11-02T15:04:50.842Z,6.75
2022-11-02T15:07:23.685Z,7.00
2022-11-02T15:09:54.221Z,6.88
2022-11-02T15:12:28.720Z,6.93
2022-11-02T15:15:00.555Z,6.13
2022-11-02T15:17:54.488Z,6.55
2022-11-02T15:20:33.633Z,7.43
2022-11-02T15:23:29.491Z,7.20
2022-11-02T15:25:59.865Z,7.32
2022-11-02T15:28:30.725Z,6.50
2022-11-02T15:31:05.302Z,7.47
2022-11-02T15:33:37.958Z,7.18
2022-11-02T15:36:09.760Z,8.63
2022-11-02T15:38:40.331Z,7.43
2022-11-02T15:41:20.646Z,7.45
2022-11-02T15:44:00.544Z,8.65
2022-11-02T15:46:43.166Z,8.23
2022-11-02T15:49:26.087Z,8.25
2022-11-02T15:52:04.598Z,10.25
2022-11-02T15:54:50.802Z,8.85
2022-11-02T15:57:30.243Z,11.70
2022-11-02T16:00:13.267Z,14.73
2022-11-02T16:02:44.801Z,15.27
2022-11-02T16:05:23.512Z,13.07
2022-11-02T16:10:41.554Z,12.27
2022-11-02T16:13:17.070Z,11.90
2022-11-02T16:15:46.308Z,11.37
2022-11-02T16:18:26.698Z,11.67
2022-11-02T16:20:57.019Z,12.60
2022-11-02T16:23:28.038Z,12.50
2022-11-02T16:25:58.376Z,13.27
2022-11-02T16:28:28.411Z,11.63
2022-11-02T16:31:12.501Z,12.53
2022-11-02T16:33:47.594Z,12.10
2022-11-02T16:36:18.233Z,11.50
2022-11-02T16:38:54.077Z,11.27
2022-11-02T16:41:22.142Z,11.93
2022-11-02T16:43:51.885Z,11.23
2022-11-02T16:46:30.797Z,12.37
2022-11-02T16:49:13.378Z,15.03
2022-11-02T16:51:41.769Z,13.93
2022-11-02T16:54:30.649Z,13.90
2022-11-02T16:57:03.279Z,12.83
2022-11-02T16:59:36.068Z,13.63
2022-11-02T17:02:06.081Z,13.37
2022-11-02T17:04:42.464Z,12.83
2022-11-02T17:07:14.675Z,13.20
2022-11-02T17:09:43.099Z,12.13
2022-11-02T17:12:16.253Z,13.10
2022-11-02T17:14:46.656Z,12.87
2022-11-02T17:17:36.418Z,11.63
2022-11-02T17:20:18.139Z,13.30
2022-11-02T17:22:55.285Z,15.53
2022-11-02T17:25:25.524Z,14.00
2022-11-02T17:27:55.362Z,14.20
2022-11-02T17:30:49.191Z,15.27
2022-11-02T17:33:24.802Z,13.50
2022-11-02T17:35:55.905Z,12.33
2022-11-02T17:38:26.890Z,11.87
2022-11-02T17:40:55.501Z,11.57
2022-11-02T17:43:23.737Z,11.37
2022-11-02T17:45:58.164Z,11.33
2022-11-02T17:48:28.526Z,12.17
2022-11-02T17:50:59.871Z,13.13
2022-11-02T17:53:28.222Z,13.10
2022-11-02T17:55:56.216Z,14.47
2022-11-02T17:58:24.086Z,13.57
2022-11-02T18:00:54.094Z,13.90
2022-11-02T18:03:25.567Z,12.27
2022-11-02T18:06:00.207Z,12.20
2022-11-02T18:08:28.506Z,11.73
2022-11-02T18:10:56.386Z,11.07
2022-11-02T18:13:25.774Z,9.80
2022-11-02T18:15:53.629Z,11.37
2022-11-02T18:18:21.508Z,9.87
2022-11-02T18:20:49.583Z,9.53
2022-11-02T18:23:19.902Z,9.93
2022-11-02T18:25:47.935Z,10.23
2022-11-02T18:28:15.782Z,10.33
2022-11-02T18:30:45.093Z,10.43
2022-11-02T18:33:13.989Z,10.33
2022-11-02T18:35:42.242Z,10.03
2022-11-02T18:38:10.152Z,10.60
2022-11-02T18:40:39.389Z,10.00
2022-11-02T18:43:07.795Z,10.50
2022-11-02T18:45:35.915Z,10.10
2022-11-02T18:48:04.280Z,9.50
2022-11-02T18:50:32.550Z,9.50
2022-11-02T18:53:00.474Z,10.47
2022-11-02T18:55:28.347Z,9.53
2022-11-02T18:57:57.549Z,11.00
2022-11-02T19:00:25.397Z,9.60
2022-11-02T19:02:53.278Z,9.60
2022-11-02T19:05:38.382Z,12.67
2022-11-02T19:08:23.839Z,8.90
2022-11-02T19:10:52.330Z,8.67
2022-11-02T19:13:21.535Z,8.80
2022-11-02T19:15:49.487Z,9.10
2022-11-02T19:18:17.346Z,9.00
2022-11-02T19:20:45.274Z,9.17
2022-11-02T19:23:13.105Z,8.73
2022-11-02T19:25:40.951Z,8.77
2022-11-02T19:28:09.001Z,12.03
2022-11-02T19:30:39.771Z,9.80
2022-11-02T19:33:08.484Z,9.50
2022-11-02T19:35:36.457Z,8.50
2022-11-02T19:38:04.302Z,9.43
2022-11-02T19:40:32.142Z,11.43
2022-11-02T19:42:59.959Z,9.70
2022-11-02T19:45:27.978Z,10.47
2022-11-02T19:47:57.442Z,10.20
2022-11-02T19:50:25.416Z,9.70
2022-11-02T19:52:53.498Z,11.80
2022-11-02T19:55:25.154Z,9.90
2022-11-02T19:57:53.761Z,10.50
2022-11-02T20:00:21.805Z,10.23
2022-11-02T20:02:50.496Z,8.97
2022-11-02T20:05:19.798Z,9.40
2022-11-02T20:07:47.711Z,8.50
2022-11-02T20:10:15.742Z,9.10
2022-11-02T20:12:43.640Z,10.47
2022-11-02T20:15:12.227Z,8.30
2022-11-02T20:17:58.226Z,8.03
2022-11-02T20:20:29.258Z,7.90
2022-11-02T20:22:57.086Z,7.90
2022-11-02T20:25:25.718Z,7.70
2022-11-02T20:27:54.059Z,7.90
2022-11-02T20:30:22.407Z,8.67
2022-11-02T20:32:50.587Z,7.73
2022-11-02T20:35:22.826Z,8.23
2022-11-02T20:37:52.079Z,10.23
2022-11-02T20:40:19.986Z,11.07
2022-11-02T20:42:50.335Z,11.20
2022-11-02T20:45:18.934Z,9.67
2022-11-02T20:47:46.798Z,9.77
2022-11-02T20:50:17.535Z,8.43
2022-11-02T20:52:46.777Z,8.50
2022-11-02T20:55:16.404Z,8.37
2022-11-02T20:57:44.212Z,8.43
2022-11-02T21:00:14.190Z,8.50
2022-11-02T21:02:42.020Z,10.83
2022-11-02T21:05:10.566Z,11.33
2022-11-02T21:07:38.458Z,8.10
2022-11-02T21:10:07.551Z,12.00
2022-11-02T21:12:54.507Z,7.97
2022-11-02T21:15:22.351Z,8.80
2022-11-02T21:17:50.202Z,12.97
2022-11-02T21:20:34.984Z,8.90
2022-11-02T21:23:03.324Z,10.03
2022-11-02T21:25:31.949Z,8.53
2022-11-02T21:28:01.419Z,8.07
2022-11-02T21:30:30.942Z,7.63
2022-11-02T21:32:59.038Z,8.87
2022-11-02T21:35:27.003Z,8.67
2022-11-02T21:37:57.497Z,8.30
2022-11-02T21:40:25.622Z,8.27
2022-11-02T21:42:53.482Z,8.43
2022-11-02T21:45:25.994Z,7.43
2022-11-02T21:47:54.200Z,8.30
2022-11-02T21:50:22.040Z,7.90
2022-11-02T21:52:49.888Z,9.63
2022-11-02T21:55:18.264Z,8.57
2022-11-02T21:57:46.128Z,8.30
2022-11-02T22:00:15.014Z,9.10
2022-11-02T22:02:43.353Z,8.37
2022-11-02T22:05:31.233Z,8.47
2022-11-02T22:08:16.685Z,8.17
2022-11-02T22:10:44.634Z,7.27
2022-11-02T22:13:29.795Z,7.87
2022-11-02T22:15:57.670Z,7.40
2022-11-02T22:18:26.870Z,7.73
2022-11-02T22:20:55.342Z,6.97
2022-11-02T22:23:23.159Z,6.53
2022-11-02T22:25:58.315Z,6.83
2022-11-02T22:28:29.540Z,7.20
2022-11-02T22:30:57.593Z,6.60
2022-11-02T22:33:27.482Z,6.83
2022-11-02T22:35:55.321Z,6.80
2022-11-02T22:38:40.435Z,6.30
2022-11-02T22:41:08.291Z,7.13
2022-11-02T22:43:36.117Z,6.90
2022-11-02T22:46:05.693Z,6.70
2022-11-02T22:48:36.430Z,6.63
2022-11-02T22:51:06.077Z,6.33
2022-11-02T22:53:34.548Z,6.83
2022-11-02T22:56:03.809Z,6.33
2022-11-02T22:58:32.924Z,6.70
2022-11-02T23:01:01.019Z,6.20
2022-11-02T23:03:31.537Z,5.93
2022-11-02T23:06:01.004Z,6.30
2022-11-02T23:08:29.923Z,6.10
2022-11-02T23:11:17.348Z,5.83
2022-11-02T23:13:48.467Z,5.37
2022-11-02T23:16:22.909Z,6.23
2022-11-02T23:19:13.778Z,5.90
2022-11-02T23:21:45.227Z,5.87
2022-11-02T23:24:30.654Z,5.73
2022-11-02T23:26:59.034Z,6.07
2022-11-02T23:29:44.546Z,6.13
2022-11-02T23:32:29.541Z,5.40
2022-11-02T23:35:16.265Z,5.80
2022-11-02T23:37:47.047Z,5.17
2022-11-02T23:40:16.617Z,5.23
2022-11-02T23:42:44.449Z,5.23
2022-11-02T23:45:12.866Z,5.77
2022-11-02T23:47:57.460Z,5.27
2022-11-02T23:50:44.074Z,5.33
2022-11-02T23:53:32.740Z,5.57
2022-11-02T23:56:18.786Z,5.27
2022-11-02T23:58:46.941Z,5.13
